createdAt,value
2023-03-29T00:00:09.286Z,4.95
2023-03-29T00:00:41.128Z,5.03
2023-03-29T00:01:12.862Z,4.97
2023-03-29T00:02:04.626Z,3.50
2023-03-29T00:02:36.308Z,3.63
2023-03-29T00:03:08.482Z,3.28
2023-03-29T00:03:42.565Z,3.40
2023-03-29T00:04:15.983Z,3.30
2023-03-29T00:04:47.633Z,3.30
2023-03-29T00:05:25.380Z,3.22
2023-03-29T00:06:04.203Z,3.08
2023-03-29T00:06:36.020Z,2.88
2023-03-29T00:07:07.754Z,2.90
2023-03-29T00:07:39.398Z,2.88
2023-03-29T00:08:14.501Z,2.60
2023-03-29T00:08:46.294Z,2.40
2023-03-29T00:09:18.361Z,2.70
2023-03-29T00:09:49.963Z,2.58
2023-03-29T00:10:24.280Z,2.90
2023-03-29T00:10:57.085Z,2.80
2023-03-29T00:11:28.795Z,2.35
2023-03-29T00:12:01.781Z,2.70
2023-03-29T00:12:34.060Z,2.53
2023-03-29T00:13:05.924Z,3.00
2023-03-29T00:13:38.320Z,2.60
2023-03-29T00:14:10.232Z,2.70
2023-03-29T00:14:41.842Z,2.58
2023-03-29T00:15:13.770Z,3.00
2023-03-29T00:15:45.419Z,4.55
2023-03-29T00:16:17.875Z,4.20
2023-03-29T00:16:49.535Z,4.30
2023-03-29T00:17:21.218Z,5.10
2023-03-29T00:17:52.972Z,5.03
2023-03-29T00:18:24.689Z,6.40
2023-03-29T00:18:56.637Z,6.93
2023-03-29T00:19:29.136Z,5.85
2023-03-29T00:20:00.867Z,4.82
2023-03-29T00:20:32.450Z,4.40
2023-03-29T00:21:04.625Z,4.28
2023-03-29T00:21:36.306Z,3.35
2023-03-29T00:22:08.412Z,3.60
2023-03-29T00:22:42.236Z,3.65
2023-03-29T00:23:14.034Z,3.63
2023-03-29T00:23:45.869Z,3.67
2023-03-29T00:24:17.684Z,3.60
2023-03-29T00:24:49.466Z,3.30
2023-03-29T00:25:21.118Z,3.67
2023-03-29T00:25:56.494Z,3.10
2023-03-29T00:26:28.466Z,3.35
2023-03-29T00:27:00.479Z,2.85
2023-03-29T00:27:32.142Z,2.83
2023-03-29T00:28:03.995Z,3.08
2023-03-29T00:28:35.658Z,2.90
2023-03-29T00:29:07.237Z,2.88
2023-03-29T00:29:58.023Z,3.30
2023-03-29T00:30:29.775Z,2.78
2023-03-29T00:31:14.014Z,3.05
2023-03-29T00:31:51.448Z,2.97
2023-03-29T00:32:23.227Z,3.45
2023-03-29T00:32:55.036Z,3.13
2023-03-29T00:33:26.799Z,3.22
2023-03-29T00:33:58.423Z,3.28
2023-03-29T00:34:30.957Z,3.40
2023-03-29T00:35:02.672Z,3.60
2023-03-29T00:35:34.308Z,3.53
2023-03-29T00:36:07.522Z,3.33
2023-03-29T00:36:40.639Z,3.65
2023-03-29T00:37:14.929Z,3.15
2023-03-29T00:37:50.961Z,3.50
2023-03-29T00:38:22.763Z,3.60
2023-03-29T00:38:56.632Z,3.33
2023-03-29T00:39:29.833Z,3.65
2023-03-29T00:40:01.452Z,3.30
2023-03-29T00:40:34.405Z,3.60
2023-03-29T00:41:07.939Z,3.40
2023-03-29T00:41:39.519Z,3.38
2023-03-29T00:42:17.457Z,3.88
2023-03-29T00:42:49.104Z,3.67
2023-03-29T00:43:20.980Z,4.28
2023-03-29T00:44:01.005Z,4.55
2023-03-29T00:44:54.319Z,4.70
2023-03-29T00:45:30.497Z,4.05
2023-03-29T00:46:02.296Z,6.55
2023-03-29T00:46:35.051Z,8.25
2023-03-29T00:47:06.927Z,8.40
2023-03-29T00:47:44.549Z,6.45
2023-03-29T00:48:20.809Z,6.82
2023-03-29T00:48:53.970Z,6.63
2023-03-29T00:49:26.399Z,6.90
2023-03-29T00:50:03.004Z,7.18
2023-03-29T00:50:47.384Z,6.75
2023-03-29T00:51:21.748Z,6.32
2023-03-29T00:51:53.487Z,6.07
2023-03-29T00:52:30.172Z,6.80
2023-03-29T00:53:15.168Z,5.32
2023-03-29T00:53:53.253Z,6.20
2023-03-29T00:54:26.228Z,5.20
2023-03-29T00:55:01.754Z,5.53
2023-03-29T00:55:42.953Z,6.15
2023-03-29T00:56:24.264Z,6.97
2023-03-29T00:56:55.967Z,7.50
2023-03-29T00:57:30.143Z,8.20
2023-03-29T00:58:04.532Z,9.45
2023-03-29T00:58:47.992Z,11.35
2023-03-29T00:59:24.505Z,12.25
2023-03-29T00:59:58.003Z,10.20
2023-03-29T01:00:35.134Z,8.60
2023-03-29T01:01:17.583Z,8.20
2023-03-29T01:01:57.393Z,7.85
2023-03-29T01:02:35.032Z,8.00
2023-03-29T01:03:14.461Z,6.78
2023-03-29T01:03:54.504Z,6.90
2023-03-29T01:04:29.640Z,7.18
2023-03-29T01:05:20.223Z,7.25
2023-03-29T01:05:56.741Z,7.40
2023-03-29T01:06:29.672Z,7.50
2023-03-29T01:07:09.383Z,7.70
2023-03-29T01:07:48.394Z,6.97
2023-03-29T01:08:27.652Z,7.20
2023-03-29T01:09:03.050Z,7.32
2023-03-29T01:09:38.989Z,7.80
2023-03-29T01:10:14.667Z,7.95
2023-03-29T01:10:55.217Z,8.63
2023-03-29T01:11:45.827Z,9.02
2023-03-29T01:12:22.359Z,8.07
2023-03-29T01:13:01.547Z,7.90
2023-03-29T01:14:04.304Z,8.45
2023-03-29T01:14:45.384Z,7.72
2023-03-29T01:15:24.084Z,7.57
2023-03-29T01:15:57.885Z,7.53
2023-03-29T01:16:33.129Z,7.05
2023-03-29T01:17:05.853Z,6.78
2023-03-29T01:17:38.805Z,7.03
2023-03-29T01:18:10.764Z,6.72
2023-03-29T01:18:42.396Z,7.22
2023-03-29T01:19:17.717Z,6.25
2023-03-29T01:19:59.228Z,6.70
2023-03-29T01:20:55.657Z,6.43
2023-03-29T01:21:45.171Z,6.70
2023-03-29T01:22:45.680Z,6.28
2023-03-29T01:23:44.161Z,5.53
2023-03-29T01:24:44.809Z,5.05
2023-03-29T01:25:26.312Z,6.20
2023-03-29T01:26:11.381Z,6.25
2023-03-29T01:27:12.678Z,6.20
2023-03-29T01:28:06.422Z,6.00
2023-03-29T01:29:03.815Z,5.80
2023-03-29T01:30:01.178Z,6.10
2023-03-29T01:30:37.443Z,6.03
2023-03-29T01:31:15.597Z,5.88
2023-03-29T01:31:52.911Z,6.30
2023-03-29T01:32:48.153Z,5.15
2023-03-29T01:33:24.095Z,5.50
2023-03-29T01:34:22.082Z,5.47
2023-03-29T01:35:00.174Z,4.88
2023-03-29T01:35:45.467Z,4.72
2023-03-29T01:36:27.391Z,4.50
2023-03-29T01:37:57.931Z,4.90
2023-03-29T01:38:42.951Z,5.88
2023-03-29T01:39:14.577Z,6.57
2023-03-29T01:39:46.276Z,6.75
2023-03-29T01:40:17.985Z,6.88
2023-03-29T01:40:49.771Z,6.82
2023-03-29T01:41:23.063Z,7.10
2023-03-29T01:42:19.156Z,6.22
2023-03-29T01:43:03.175Z,6.80
2023-03-29T01:43:45.169Z,6.57
2023-03-29T01:44:28.718Z,6.78
2023-03-29T01:45:18.407Z,11.98
2023-03-29T01:46:05.171Z,11.82
2023-03-29T01:46:46.534Z,10.82
2023-03-29T01:47:55.780Z,10.77
2023-03-29T01:48:37.266Z,9.60
2023-03-29T01:49:20.292Z,13.88
2023-03-29T01:50:18.249Z,11.98
2023-03-29T01:50:55.989Z,13.25
2023-03-29T01:51:57.805Z,16.80
2023-03-29T01:52:35.917Z,17.60
2023-03-29T01:53:18.247Z,19.73
2023-03-29T01:54:05.474Z,23.73
2023-03-29T01:54:41.583Z,27.90
2023-03-29T01:55:18.550Z,24.58
2023-03-29T01:55:54.707Z,22.70
2023-03-29T01:56:29.254Z,24.85
2023-03-29T01:57:05.167Z,26.75
2023-03-29T01:57:40.820Z,29.05
2023-03-29T01:58:14.430Z,29.05
2023-03-29T01:58:51.331Z,36.25
2023-03-29T01:59:28.343Z,41.28
2023-03-29T02:00:00.747Z,39.28
2023-03-29T02:00:35.028Z,41.42
2023-03-29T02:01:10.532Z,40.42
2023-03-29T02:01:49.448Z,35.42
2023-03-29T02:02:23.508Z,27.95
2023-03-29T02:03:00.399Z,21.55
2023-03-29T02:03:34.093Z,17.38
2023-03-29T02:04:10.775Z,10.98
2023-03-29T02:04:50.197Z,10.68
2023-03-29T02:05:23.137Z,7.75
2023-03-29T02:05:56.476Z,6.65
2023-03-29T02:06:28.840Z,6.97
2023-03-29T02:07:02.880Z,5.80
2023-03-29T02:07:37.521Z,5.82
2023-03-29T02:08:12.789Z,5.40
2023-03-29T02:08:45.571Z,5.43
2023-03-29T02:09:17.944Z,4.72
2023-03-29T02:09:52.733Z,4.72
2023-03-29T02:10:24.678Z,4.95
2023-03-29T02:10:56.422Z,4.53
2023-03-29T02:11:29.468Z,4.43
2023-03-29T02:12:02.079Z,4.70
2023-03-29T02:12:34.240Z,4.53
2023-03-29T02:13:06.236Z,4.03
2023-03-29T02:13:38.015Z,4.32
2023-03-29T02:14:10.009Z,5.57
2023-03-29T02:14:41.624Z,4.70
2023-03-29T02:15:16.422Z,5.63
2023-03-29T02:15:48.473Z,5.43
2023-03-29T02:16:20.863Z,7.22
2023-03-29T02:16:52.667Z,6.85
2023-03-29T02:17:28.498Z,7.68
2023-03-29T02:18:00.408Z,7.20
2023-03-29T02:18:32.204Z,6.72
2023-03-29T02:19:04.143Z,7.47
2023-03-29T02:19:36.284Z,6.97
2023-03-29T02:20:17.360Z,7.80
2023-03-29T02:20:50.896Z,7.60
2023-03-29T02:21:36.300Z,7.78
2023-03-29T02:22:10.448Z,7.25
2023-03-29T02:22:50.267Z,8.40
2023-03-29T02:23:45.621Z,8.77
2023-03-29T02:24:19.355Z,8.63
2023-03-29T02:24:54.663Z,9.27
2023-03-29T02:25:26.428Z,10.90
2023-03-29T02:25:58.845Z,10.82
2023-03-29T02:26:30.846Z,10.80
2023-03-29T02:27:03.121Z,10.70
2023-03-29T02:27:35.125Z,10.40
2023-03-29T02:28:07.587Z,10.52
2023-03-29T02:28:39.204Z,11.48
2023-03-29T02:29:11.135Z,11.20
2023-03-29T02:29:42.951Z,14.05
2023-03-29T02:30:18.531Z,15.25
2023-03-29T02:30:55.792Z,15.10
2023-03-29T02:31:30.410Z,14.38
2023-03-29T02:32:39.758Z,13.57
2023-03-29T02:33:18.426Z,12.10
2023-03-29T02:33:53.378Z,11.85
2023-03-29T02:34:50.300Z,11.60
2023-03-29T02:35:38.631Z,10.20
2023-03-29T02:36:14.880Z,10.90
2023-03-29T02:36:50.531Z,10.70
2023-03-29T02:37:26.683Z,10.93
2023-03-29T02:38:00.154Z,10.80
2023-03-29T02:38:32.805Z,11.05
2023-03-29T02:39:05.898Z,11.13
2023-03-29T02:39:38.706Z,11.20
2023-03-29T02:40:13.115Z,11.57
2023-03-29T02:40:46.868Z,13.52
2023-03-29T02:41:19.085Z,14.35
2023-03-29T02:41:52.124Z,13.80
2023-03-29T02:42:25.640Z,14.55
2023-03-29T02:42:59.287Z,15.70
2023-03-29T02:43:32.754Z,14.70
2023-03-29T02:44:08.294Z,14.23
2023-03-29T02:44:41.995Z,14.23
2023-03-29T02:45:17.339Z,14.60
2023-03-29T02:45:50.536Z,14.57
2023-03-29T02:46:22.508Z,14.82
2023-03-29T02:46:58.108Z,16.50
2023-03-29T02:47:37.220Z,19.35
2023-03-29T02:48:12.485Z,20.45
2023-03-29T02:48:47.574Z,22.58
2023-03-29T02:49:19.398Z,22.13
2023-03-29T02:49:51.207Z,20.45
2023-03-29T02:50:25.246Z,22.27
2023-03-29T02:51:01.287Z,24.08
2023-03-29T02:51:35.506Z,23.48
2023-03-29T02:52:12.786Z,23.55
2023-03-29T02:52:53.191Z,21.80
2023-03-29T02:53:32.450Z,17.75
2023-03-29T02:54:15.619Z,20.90
2023-03-29T02:54:51.374Z,24.55
2023-03-29T02:55:26.012Z,27.48
2023-03-29T02:55:57.911Z,27.75
2023-03-29T02:56:29.833Z,28.92
2023-03-29T02:57:06.866Z,27.90
2023-03-29T02:57:39.519Z,29.00
2023-03-29T02:58:13.557Z,29.20
2023-03-29T02:58:45.183Z,28.90
2023-03-29T02:59:22.681Z,30.23
2023-03-29T02:59:57.027Z,28.63
2023-03-29T03:00:28.842Z,28.92
2023-03-29T03:01:02.307Z,28.70
2023-03-29T03:01:34.384Z,27.40
2023-03-29T03:02:05.995Z,25.95
2023-03-29T03:02:38.688Z,25.00
2023-03-29T03:03:12.304Z,25.35
2023-03-29T03:03:45.304Z,25.95
2023-03-29T03:04:18.576Z,23.95
2023-03-29T03:04:50.152Z,20.00
2023-03-29T03:05:21.833Z,21.58
2023-03-29T03:05:53.951Z,24.60
2023-03-29T03:06:25.556Z,23.27
2023-03-29T03:06:57.699Z,23.45
2023-03-29T03:07:29.778Z,22.25
2023-03-29T03:08:02.661Z,22.60
2023-03-29T03:08:34.233Z,22.15
2023-03-29T03:09:06.842Z,21.90
2023-03-29T03:09:38.499Z,18.98
2023-03-29T03:10:10.534Z,20.75
2023-03-29T03:10:42.180Z,18.05
2023-03-29T03:11:15.318Z,16.90
2023-03-29T03:11:47.062Z,16.65
2023-03-29T03:12:18.632Z,15.80
2023-03-29T03:12:50.408Z,15.35
2023-03-29T03:13:22.027Z,15.55
2023-03-29T03:13:53.663Z,14.85
2023-03-29T03:14:25.368Z,14.52
2023-03-29T03:14:56.955Z,14.73
2023-03-29T03:15:28.657Z,14.50
2023-03-29T03:16:01.287Z,14.50
2023-03-29T03:16:33.072Z,14.45
2023-03-29T03:17:04.961Z,13.95
2023-03-29T03:17:40.245Z,14.98
2023-03-29T03:18:13.072Z,15.02
2023-03-29T03:18:46.026Z,17.00
2023-03-29T03:19:17.923Z,15.95
2023-03-29T03:19:49.668Z,14.48
2023-03-29T03:20:24.132Z,14.55
2023-03-29T03:21:01.912Z,14.63
2023-03-29T03:21:35.333Z,14.07
2023-03-29T03:22:07.804Z,14.27
2023-03-29T03:22:45.729Z,15.50
2023-03-29T03:23:17.776Z,15.30
2023-03-29T03:23:49.463Z,15.75
2023-03-29T03:24:21.104Z,14.93
2023-03-29T03:24:52.711Z,14.50
2023-03-29T03:25:24.447Z,14.40
2023-03-29T03:25:56.679Z,15.48
2023-03-29T03:26:30.185Z,15.52
2023-03-29T03:27:02.001Z,15.10
2023-03-29T03:27:34.105Z,15.80
2023-03-29T03:28:05.932Z,15.48
2023-03-29T03:28:37.794Z,15.30
2023-03-29T03:29:09.790Z,15.55
2023-03-29T03:29:41.613Z,16.52
2023-03-29T03:30:13.493Z,16.05
2023-03-29T03:30:45.212Z,15.77
2023-03-29T03:31:17.688Z,15.38
2023-03-29T03:31:50.347Z,16.35
2023-03-29T03:32:23.929Z,15.43
2023-03-29T03:32:55.676Z,15.23
2023-03-29T03:33:28.375Z,17.20
2023-03-29T03:34:00.102Z,16.77
2023-03-29T03:34:31.741Z,16.27
2023-03-29T03:35:05.668Z,16.45
2023-03-29T03:35:38.746Z,15.07
2023-03-29T03:36:11.446Z,15.45
2023-03-29T03:36:43.159Z,14.20
2023-03-29T03:37:15.558Z,15.15
2023-03-29T03:37:47.181Z,15.32
2023-03-29T03:38:18.916Z,15.18
2023-03-29T03:38:50.720Z,15.32
2023-03-29T03:39:22.974Z,15.85
2023-03-29T03:39:54.941Z,14.27
2023-03-29T03:40:28.259Z,15.70
2023-03-29T03:41:01.579Z,16.73
2023-03-29T03:41:34.704Z,16.60
2023-03-29T03:42:08.446Z,16.13
2023-03-29T03:42:41.323Z,17.23
2023-03-29T03:43:13.163Z,16.30
2023-03-29T03:43:48.860Z,15.02
2023-03-29T03:44:20.559Z,15.52
2023-03-29T03:44:52.184Z,15.85
2023-03-29T03:45:24.808Z,15.07
2023-03-29T03:45:56.694Z,15.38
2023-03-29T03:46:29.638Z,15.15
2023-03-29T03:47:01.518Z,15.18
2023-03-29T03:47:33.210Z,16.95
2023-03-29T03:48:05.101Z,16.70
2023-03-29T03:48:37.348Z,16.90
2023-03-29T03:49:09.009Z,19.58
2023-03-29T03:49:41.147Z,19.45
2023-03-29T03:50:13.788Z,18.45
2023-03-29T03:50:50.532Z,20.33
2023-03-29T03:51:22.396Z,20.13
2023-03-29T03:51:54.201Z,20.65
2023-03-29T03:52:26.316Z,21.00
2023-03-29T03:52:57.917Z,20.33
2023-03-29T03:53:29.576Z,21.75
2023-03-29T03:54:01.199Z,20.52
2023-03-29T03:54:33.400Z,19.48
2023-03-29T03:55:05.483Z,19.13
2023-03-29T03:55:37.051Z,19.42
2023-03-29T03:56:09.337Z,15.77
2023-03-29T03:56:41.003Z,13.30
2023-03-29T03:57:12.860Z,13.43
2023-03-29T03:57:44.753Z,11.00
2023-03-29T03:58:17.561Z,10.27
2023-03-29T03:58:49.204Z,9.18
2023-03-29T03:59:21.021Z,9.02
2023-03-29T03:59:52.969Z,9.73
2023-03-29T04:00:24.822Z,10.82
2023-03-29T04:00:56.552Z,12.15
2023-03-29T04:01:28.179Z,12.77
2023-03-29T04:02:00.371Z,10.65
2023-03-29T04:02:32.870Z,11.13
2023-03-29T04:03:06.147Z,11.02
2023-03-29T04:03:39.255Z,10.70
2023-03-29T04:04:11.623Z,13.27
2023-03-29T04:04:43.210Z,12.23
2023-03-29T04:05:16.418Z,14.60
2023-03-29T04:05:48.930Z,14.15
2023-03-29T04:06:20.752Z,23.17
2023-03-29T04:06:52.906Z,27.95
2023-03-29T04:07:25.427Z,31.30
2023-03-29T04:07:57.213Z,27.08
2023-03-29T04:08:28.852Z,24.70
2023-03-29T04:09:00.424Z,20.58
2023-03-29T04:09:34.081Z,16.42
2023-03-29T04:10:06.586Z,17.50
2023-03-29T04:10:38.567Z,21.13
2023-03-29T04:11:10.659Z,18.65
2023-03-29T04:11:42.417Z,17.60
2023-03-29T04:12:14.106Z,17.20
2023-03-29T04:12:45.661Z,24.02
2023-03-29T04:13:17.346Z,27.92
2023-03-29T04:13:48.949Z,31.33
2023-03-29T04:14:20.726Z,34.25
2023-03-29T04:14:52.455Z,35.53
2023-03-29T04:15:24.277Z,34.65
2023-03-29T04:15:58.222Z,33.33
2023-03-29T04:16:31.910Z,33.95
2023-03-29T04:17:03.475Z,32.22
2023-03-29T04:17:35.867Z,30.50
2023-03-29T04:18:07.785Z,31.83
2023-03-29T04:18:39.672Z,31.30
2023-03-29T04:19:11.798Z,33.03
2023-03-29T04:19:43.451Z,31.42
2023-03-29T04:20:15.178Z,34.75
2023-03-29T04:20:47.864Z,32.03
2023-03-29T04:21:21.327Z,29.58
2023-03-29T04:21:53.381Z,25.50
2023-03-29T04:22:28.562Z,23.23
2023-03-29T04:23:00.199Z,22.40
2023-03-29T04:23:31.809Z,22.48
2023-03-29T04:24:03.586Z,19.70
2023-03-29T04:24:35.272Z,20.35
2023-03-29T04:25:08.273Z,20.35
2023-03-29T04:25:40.751Z,17.15
2023-03-29T04:26:13.756Z,18.17
2023-03-29T04:26:45.386Z,17.20
2023-03-29T04:27:17.356Z,19.55
2023-03-29T04:27:51.799Z,19.95
2023-03-29T04:28:23.610Z,18.17
2023-03-29T04:28:55.382Z,17.63
2023-03-29T04:29:27.048Z,17.15
2023-03-29T04:29:58.630Z,16.95
2023-03-29T04:30:30.476Z,14.75
2023-03-29T04:31:02.473Z,13.80
2023-03-29T04:31:34.416Z,13.95
2023-03-29T04:32:06.114Z,12.20
2023-03-29T04:32:38.135Z,12.50
2023-03-29T04:33:10.381Z,13.38
2023-03-29T04:33:42.577Z,12.80
2023-03-29T04:34:14.263Z,13.85
2023-03-29T04:34:45.955Z,14.13
2023-03-29T04:35:18.079Z,15.23
2023-03-29T04:35:49.838Z,22.80
2023-03-29T04:36:21.652Z,24.48
2023-03-29T04:36:53.343Z,22.92
2023-03-29T04:37:25.031Z,22.70
2023-03-29T04:37:56.620Z,21.35
2023-03-29T04:38:28.224Z,21.88
2023-03-29T04:39:01.843Z,39.17
2023-03-29T04:39:34.395Z,46.58
2023-03-29T04:40:09.844Z,53.22
2023-03-29T04:40:42.164Z,58.33
2023-03-29T04:41:15.469Z,61.80
2023-03-29T04:41:47.482Z,61.65
2023-03-29T04:42:19.224Z,60.13
2023-03-29T04:42:51.791Z,58.65
2023-03-29T04:43:23.760Z,54.42
2023-03-29T04:43:56.267Z,53.30
2023-03-29T04:44:28.162Z,53.83
2023-03-29T04:45:01.081Z,51.40
2023-03-29T04:45:32.786Z,49.30
2023-03-29T04:46:07.387Z,49.20
2023-03-29T04:46:40.385Z,46.60
2023-03-29T04:47:13.358Z,43.92
2023-03-29T04:47:45.905Z,40.60
2023-03-29T04:48:17.555Z,39.17
2023-03-29T04:48:49.163Z,39.25
2023-03-29T04:49:20.761Z,35.65
2023-03-29T04:49:52.472Z,35.63
2023-03-29T04:50:24.054Z,32.65
2023-03-29T04:50:55.805Z,34.30
2023-03-29T04:51:27.557Z,39.80
2023-03-29T04:52:00.970Z,26.92
2023-03-29T04:52:33.455Z,20.15
2023-03-29T04:53:05.998Z,23.25
2023-03-29T04:53:37.776Z,15.85
2023-03-29T04:54:09.593Z,13.25
2023-03-29T04:54:41.211Z,15.50
2023-03-29T04:55:13.032Z,25.58
2023-03-29T04:55:47.001Z,15.23
2023-03-29T04:56:18.783Z,17.70
2023-03-29T04:56:52.256Z,19.20
2023-03-29T04:57:24.022Z,22.90
2023-03-29T04:57:55.822Z,17.63
2023-03-29T04:58:32.064Z,18.67
2023-03-29T04:59:04.405Z,17.70
2023-03-29T04:59:36.436Z,19.48
2023-03-29T05:00:15.418Z,17.75
2023-03-29T05:00:47.303Z,20.77
2023-03-29T05:01:19.850Z,24.38
2023-03-29T05:01:51.765Z,26.80
2023-03-29T05:02:23.787Z,29.33
2023-03-29T05:02:55.545Z,30.73
2023-03-29T05:03:27.315Z,30.58
2023-03-29T05:03:59.024Z,29.92
2023-03-29T05:04:32.606Z,30.63
2023-03-29T05:05:04.589Z,29.77
2023-03-29T05:05:36.222Z,29.90
2023-03-29T05:06:10.720Z,30.70
2023-03-29T05:06:42.359Z,34.80
2023-03-29T05:07:15.452Z,37.75
2023-03-29T05:07:47.132Z,36.17
2023-03-29T05:08:18.896Z,37.45
2023-03-29T05:08:51.347Z,38.50
2023-03-29T05:09:24.059Z,37.40
2023-03-29T05:09:55.938Z,40.95
2023-03-29T05:10:27.562Z,43.72
2023-03-29T05:10:59.229Z,40.83
2023-03-29T05:11:31.690Z,40.42
2023-03-29T05:12:03.453Z,42.72
2023-03-29T05:12:35.239Z,39.65
2023-03-29T05:13:06.846Z,42.47
2023-03-29T05:13:38.483Z,39.58
2023-03-29T05:14:10.313Z,39.22
2023-03-29T05:14:41.897Z,51.38
2023-03-29T05:15:13.524Z,52.58
2023-03-29T05:15:45.165Z,53.20
2023-03-29T05:16:16.960Z,56.97
2023-03-29T05:16:48.763Z,63.50
2023-03-29T05:17:21.610Z,71.00
2023-03-29T05:17:53.545Z,72.45
2023-03-29T05:18:25.331Z,80.10
2023-03-29T05:18:57.716Z,83.15
2023-03-29T05:19:29.361Z,83.68
2023-03-29T05:20:01.496Z,85.07
2023-03-29T05:20:33.151Z,80.75
2023-03-29T05:21:05.143Z,78.15
2023-03-29T05:21:37.093Z,80.47
2023-03-29T05:22:09.207Z,79.38
2023-03-29T05:22:40.923Z,78.72
2023-03-29T05:23:12.561Z,84.20
2023-03-29T05:23:45.060Z,67.53
2023-03-29T05:24:17.872Z,46.20
2023-03-29T05:24:50.516Z,42.63
2023-03-29T05:25:22.931Z,40.42
2023-03-29T05:25:54.676Z,38.40
2023-03-29T05:26:26.605Z,39.45
2023-03-29T05:26:58.300Z,24.00
2023-03-29T05:27:29.927Z,17.70
2023-03-29T05:28:02.423Z,23.48
2023-03-29T05:28:34.037Z,31.38
2023-03-29T05:29:07.328Z,27.30
2023-03-29T05:29:39.032Z,25.17
2023-03-29T05:30:11.689Z,24.45
2023-03-29T05:30:43.427Z,31.02
2023-03-29T05:31:16.980Z,30.55
2023-03-29T05:31:49.540Z,45.10
2023-03-29T05:32:21.145Z,45.72
2023-03-29T05:32:53.035Z,45.95
2023-03-29T05:33:24.731Z,42.67
2023-03-29T05:33:57.941Z,40.28
2023-03-29T05:34:31.478Z,39.38
2023-03-29T05:35:03.177Z,37.97
2023-03-29T05:35:36.076Z,34.45
2023-03-29T05:36:11.028Z,33.53
2023-03-29T05:36:42.920Z,33.78
2023-03-29T05:37:14.494Z,29.83
2023-03-29T05:37:47.387Z,30.92
2023-03-29T05:38:19.028Z,27.83
2023-03-29T05:38:50.916Z,25.52
2023-03-29T05:39:23.508Z,27.48
2023-03-29T05:39:55.243Z,30.08
2023-03-29T05:40:37.925Z,30.05
2023-03-29T05:41:10.846Z,22.65
2023-03-29T05:41:42.426Z,19.13
2023-03-29T05:42:15.631Z,20.08
2023-03-29T05:42:47.287Z,21.23
2023-03-29T05:43:18.929Z,22.80
2023-03-29T05:43:50.725Z,29.33
2023-03-29T05:44:22.417Z,36.00
2023-03-29T05:44:55.242Z,42.25
2023-03-29T05:45:29.095Z,45.22
2023-03-29T05:46:00.922Z,41.63
2023-03-29T05:46:32.692Z,41.35
2023-03-29T05:47:04.307Z,41.25
2023-03-29T05:47:36.227Z,39.70
2023-03-29T05:48:08.979Z,37.05
2023-03-29T05:48:40.865Z,41.75
2023-03-29T05:49:12.611Z,46.13
2023-03-29T05:49:44.217Z,47.90
2023-03-29T05:50:15.947Z,49.30
2023-03-29T05:50:49.077Z,46.10
2023-03-29T05:51:24.404Z,43.30
2023-03-29T05:51:57.134Z,40.70
2023-03-29T05:52:28.912Z,41.75
2023-03-29T05:53:00.595Z,43.63
2023-03-29T05:53:32.393Z,45.60
2023-03-29T05:54:04.274Z,44.60
2023-03-29T05:54:35.880Z,41.30
2023-03-29T05:55:08.129Z,44.72
2023-03-29T05:55:39.808Z,45.08
2023-03-29T05:56:11.869Z,44.40
2023-03-29T05:56:43.751Z,44.17
2023-03-29T05:57:15.470Z,43.38
2023-03-29T05:57:47.704Z,43.47
2023-03-29T05:58:21.531Z,44.75
2023-03-29T05:58:56.136Z,43.60
2023-03-29T05:59:29.797Z,45.80
2023-03-29T06:00:02.125Z,46.22
2023-03-29T06:00:37.067Z,46.45
2023-03-29T06:01:13.833Z,47.83
2023-03-29T06:01:48.698Z,49.25
2023-03-29T06:02:20.449Z,48.58
2023-03-29T06:03:03.752Z,50.00
2023-03-29T06:03:42.310Z,48.58
2023-03-29T06:04:15.447Z,50.63
2023-03-29T06:04:47.145Z,42.22
2023-03-29T06:05:20.181Z,44.13
2023-03-29T06:06:04.956Z,40.95
2023-03-29T06:06:36.556Z,39.92
2023-03-29T06:07:08.814Z,40.22
2023-03-29T06:07:40.429Z,40.30
2023-03-29T06:08:12.881Z,40.67
2023-03-29T06:08:45.202Z,39.42
2023-03-29T06:09:16.832Z,40.53
2023-03-29T06:09:48.558Z,42.30
2023-03-29T06:10:20.660Z,40.58
2023-03-29T06:11:05.899Z,43.35
2023-03-29T06:11:37.728Z,42.20
2023-03-29T06:12:09.707Z,42.22
2023-03-29T06:12:41.947Z,41.90
2023-03-29T06:13:13.544Z,42.40
2023-03-29T06:13:45.202Z,43.70
2023-03-29T06:14:17.371Z,43.78
2023-03-29T06:14:49.315Z,42.47
2023-03-29T06:15:22.140Z,42.10
2023-03-29T06:15:53.782Z,41.65
2023-03-29T06:16:25.985Z,42.17
2023-03-29T06:16:57.623Z,41.30
2023-03-29T06:17:29.291Z,41.28
2023-03-29T06:18:04.692Z,40.05
2023-03-29T06:18:38.207Z,39.58
2023-03-29T06:19:09.809Z,39.42
2023-03-29T06:19:41.415Z,40.63
2023-03-29T06:20:14.034Z,41.90
2023-03-29T06:20:49.484Z,37.42
2023-03-29T06:21:22.002Z,38.90
2023-03-29T06:21:54.343Z,38.20
2023-03-29T06:22:26.191Z,37.90
2023-03-29T06:22:58.439Z,37.28
2023-03-29T06:23:30.786Z,41.97
2023-03-29T06:24:02.514Z,39.85
2023-03-29T06:24:34.168Z,40.83
2023-03-29T06:25:07.221Z,39.75
2023-03-29T06:25:39.566Z,39.97
2023-03-29T06:26:11.173Z,39.83
2023-03-29T06:26:42.825Z,39.03
2023-03-29T06:27:14.433Z,39.97
2023-03-29T06:27:49.973Z,37.72
2023-03-29T06:28:22.761Z,29.98
2023-03-29T06:28:54.386Z,32.05
2023-03-29T06:29:26.017Z,32.55
2023-03-29T06:29:57.610Z,32.25
2023-03-29T06:30:29.195Z,31.77
2023-03-29T06:31:03.779Z,30.85
2023-03-29T06:31:36.674Z,27.77
2023-03-29T06:32:08.383Z,24.48
2023-03-29T06:32:40.226Z,22.10
2023-03-29T06:33:12.910Z,20.00
2023-03-29T06:33:44.556Z,20.88
2023-03-29T06:34:17.414Z,17.33
2023-03-29T06:34:49.745Z,18.52
2023-03-29T06:35:21.886Z,16.45
2023-03-29T06:35:53.588Z,16.55
2023-03-29T06:36:25.929Z,15.65
2023-03-29T06:36:57.746Z,16.70
2023-03-29T06:37:29.419Z,14.82
2023-03-29T06:38:01.539Z,14.23
2023-03-29T06:38:34.084Z,11.10
2023-03-29T06:39:08.800Z,10.00
2023-03-29T06:39:41.136Z,9.48
2023-03-29T06:40:13.291Z,10.50
2023-03-29T06:40:45.386Z,7.32
2023-03-29T06:41:17.006Z,7.55
2023-03-29T06:41:49.103Z,7.97
2023-03-29T06:42:21.937Z,7.65
2023-03-29T06:42:59.512Z,7.07
2023-03-29T06:43:33.410Z,6.50
2023-03-29T06:44:06.786Z,7.00
2023-03-29T06:44:38.396Z,6.53
2023-03-29T06:45:10.555Z,6.82
2023-03-29T06:45:42.746Z,7.28
2023-03-29T06:46:14.484Z,6.78
2023-03-29T06:46:46.527Z,8.50
2023-03-29T06:47:18.315Z,7.15
2023-03-29T06:47:50.811Z,7.22
2023-03-29T06:48:22.723Z,6.90
2023-03-29T06:48:54.378Z,6.85
2023-03-29T06:49:26.415Z,6.60
2023-03-29T06:49:58.129Z,6.60
2023-03-29T06:50:31.630Z,6.53
2023-03-29T06:51:03.587Z,6.68
2023-03-29T06:51:35.472Z,7.05
2023-03-29T06:52:07.157Z,6.63
2023-03-29T06:52:38.787Z,6.85
2023-03-29T06:53:10.554Z,7.43
2023-03-29T06:53:42.151Z,6.32
2023-03-29T06:54:13.714Z,6.78
2023-03-29T06:54:45.504Z,6.65
2023-03-29T06:55:18.469Z,6.70
2023-03-29T06:55:52.067Z,6.82
2023-03-29T06:56:23.939Z,6.90
2023-03-29T06:56:55.691Z,6.70
2023-03-29T06:57:28.641Z,7.43
2023-03-29T06:58:02.672Z,7.28
2023-03-29T06:58:35.750Z,8.07
2023-03-29T06:59:07.383Z,9.65
2023-03-29T06:59:38.984Z,8.57
2023-03-29T07:00:16.941Z,8.18
2023-03-29T07:00:48.641Z,7.97
2023-03-29T07:01:20.769Z,7.28
2023-03-29T07:01:55.427Z,7.93
2023-03-29T07:02:27.404Z,7.65
2023-03-29T07:03:00.906Z,7.82
2023-03-29T07:03:35.066Z,7.80
2023-03-29T07:04:08.957Z,7.95
2023-03-29T07:04:41.978Z,7.93
2023-03-29T07:05:14.492Z,7.15
2023-03-29T07:05:47.856Z,6.80
2023-03-29T07:06:20.578Z,7.80
2023-03-29T07:07:01.670Z,7.57
2023-03-29T07:07:53.654Z,6.90
2023-03-29T07:08:31.273Z,7.57
2023-03-29T07:09:06.653Z,7.15
2023-03-29T07:09:40.031Z,7.38
2023-03-29T07:10:12.906Z,7.40
2023-03-29T07:10:47.593Z,7.72
2023-03-29T07:11:20.426Z,7.32
2023-03-29T07:11:52.101Z,7.47
2023-03-29T07:12:23.705Z,7.57
2023-03-29T07:12:55.532Z,7.47
2023-03-29T07:13:27.734Z,8.40
2023-03-29T07:13:59.590Z,8.55
2023-03-29T07:14:31.541Z,8.50
2023-03-29T07:15:04.572Z,9.23
2023-03-29T07:15:36.237Z,9.55
2023-03-29T07:16:12.769Z,10.00
2023-03-29T07:16:47.444Z,9.57
2023-03-29T07:17:19.262Z,8.93
2023-03-29T07:17:51.471Z,8.95
2023-03-29T07:18:23.329Z,8.82
2023-03-29T07:18:55.328Z,8.88
2023-03-29T07:19:30.261Z,9.10
2023-03-29T07:20:02.513Z,8.63
2023-03-29T07:20:34.411Z,8.82
2023-03-29T07:21:06.503Z,9.00
2023-03-29T07:21:38.280Z,8.70
2023-03-29T07:22:09.999Z,8.50
2023-03-29T07:22:43.728Z,8.30
2023-03-29T07:23:15.570Z,8.60
2023-03-29T07:23:47.194Z,8.10
2023-03-29T07:24:20.201Z,8.20
2023-03-29T07:24:52.231Z,8.32
2023-03-29T07:25:25.317Z,8.90
2023-03-29T07:25:57.071Z,9.02